Time;durP1;ratioP1;P1;durP2;ratioP2;P2;SDS_P1;SDS_P2;PMS_P1;PMS_P2;Temp;Humidity;BMP_temperature;BMP_pressure;BME280_temperature;BME280_humidity;BME280_pressure;Samples;Min_cycle;Max_cycle;Signal;HPM_P1;HPM_P2
2022/03/04 00:01:51;;;;;;;1.53;1.43;;;-0.60;99.90;;;;;;6311308;28;20273;-75
2022/03/04 00:04:58;;;;;;;1.50;1.20;;;-0.60;99.90;;;;;;6311211;28;20313;-74
2022/03/04 00:08:05;;;;;;;2.30;1.37;;;-0.60;99.90;;;;;;6311274;28;20295;-75
2022/03/04 00:11:12;;;;;;;1.90;1.30;;;-0.60;99.90;;;;;;6294095;28;20294;-75
2022/03/04 00:14:17;;;;;;;2.20;1.10;;;-0.60;99.90;;;;;;6310951;28;20294;-74
2022/03/04 00:17:23;;;;;;;1.77;1.20;;;-0.60;99.90;;;;;;6311173;28;20273;-74
2022/03/04 00:20:29;;;;;;;1.40;1.30;;;-0.60;99.90;;;;;;6311295;28;20294;-75
2022/03/04 00:23:36;;;;;;;1.30;1.30;;;-0.60;99.90;;;;;;6310645;28;20294;-74
2022/03/04 00:26:41;;;;;;;1.43;1.33;;;-0.70;99.90;;;;;;6312198;28;20294;-75
2022/03/04 00:29:47;;;;;;;1.30;1.20;;;-0.60;99.90;;;;;;6315236;28;20296;-74
2022/03/04 00:32:52;;;;;;;1.33;1.27;;;-0.60;99.90;;;;;;6314855;28;20270;-75
2022/03/04 00:35:59;;;;;;;4.30;1.60;;;-0.70;99.90;;;;;;6315050;28;20274;-74
2022/03/04 00:39:07;;;;;;;1.00;1.00;;;-0.70;99.90;;;;;;6314866;28;20459;-74
2022/03/04 00:42:13;;;;;;;1.30;1.20;;;-0.70;99.90;;;;;;6314987;28;20276;-75
2022/03/04 00:45:18;;;;;;;1.20;1.20;;;-0.70;99.90;;;;;;6315319;28;20593;-74
2022/03/04 00:48:24;;;;;;;1.10;1.10;;;-0.70;99.90;;;;;;6314640;28;20295;-75
2022/03/04 00:51:31;;;;;;;1.70;1.13;;;-0.70;99.90;;;;;;6315355;28;20449;-75
2022/03/04 00:54:36;;;;;;;2.67;1.30;;;-0.70;99.90;;;;;;6315199;28;20292;-75
2022/03/04 00:57:41;;;;;;;3.80;1.10;;;-0.70;99.90;;;;;;6313970;28;20271;-75
2022/03/04 01:00:47;;;;;;;1.50;1.20;;;-0.70;99.90;;;;;;6315053;28;20267;-75
2022/03/04 01:03:53;;;;;;;1.23;1.20;;;-0.70;99.90;;;;;;6313524;28;20301;-75
2022/03/04 01:06:59;;;;;;;3.37;1.20;;;-0.70;99.90;;;;;;6314372;28;20293;-75
2022/03/04 01:10:06;;;;;;;5.87;1.10;;;-0.70;99.90;;;;;;6314779;28;20299;-75
2022/03/04 01:13:11;;;;;;;3.13;1.10;;;-0.80;99.90;;;;;;6314847;28;20293;-75
2022/03/04 01:16:17;;;;;;;2.17;1.20;;;-0.70;99.90;;;;;;6314765;28;20464;-75
2022/03/04 01:19:23;;;;;;;3.50;1.20;;;-0.80;99.90;;;;;;6314557;28;20290;-75
2022/03/04 01:22:30;;;;;;;1.40;1.30;;;-0.80;99.90;;;;;;6314294;28;20289;-75
2022/03/04 01:25:35;;;;;;;1.57;1.07;;;-0.80;99.90;;;;;;6313280;28;20279;-75
2022/03/04 01:28:41;;;;;;;1.37;1.23;;;-0.80;99.90;;;;;;6313777;28;20300;-75
2022/03/04 01:31:46;;;;;;;1.23;1.23;;;-0.80;99.90;;;;;;6313727;28;20273;-75
2022/03/04 01:34:52;;;;;;;0.97;0.97;;;-0.80;99.90;;;;;;6313854;28;20294;-75
2022/03/04 01:37:59;;;;;;;1.20;1.20;;;-0.80;99.90;;;;;;6312660;28;20300;-75
2022/03/04 01:41:04;;;;;;;2.00;1.40;;;-0.90;99.90;;;;;;6314615;28;20276;-75
2022/03/04 01:44:12;;;;;;;1.10;1.10;;;-0.80;99.90;;;;;;6313497;28;20483;-75
2022/03/04 01:47:18;;;;;;;1.10;1.10;;;-0.90;99.90;;;;;;6314141;28;20284;-75
2022/03/04 01:50:25;;;;;;;1.27;1.20;;;-0.90;99.90;;;;;;6313981;28;20300;-75
2022/03/04 01:53:32;;;;;;;1.50;1.40;;;-0.90;99.90;;;;;;6313954;28;20299;-75
2022/03/04 01:56:38;;;;;;;3.13;1.30;;;-0.90;99.90;;;;;;6313275;28;20592;-75
2022/03/04 01:59:43;;;;;;;2.77;1.27;;;-0.90;99.90;;;;;;6312809;28;20301;-75
2022/03/04 02:02:48;;;;;;;2.13;1.27;;;-0.90;99.90;;;;;;6312909;28;20561;-76
2022/03/04 02:05:54;;;;;;;1.90;1.00;;;-1.00;99.90;;;;;;6313048;28;20269;-76
2022/03/04 02:09:01;;;;;;;1.50;1.17;;;-1.00;99.90;;;;;;6312703;28;20298;-76
2022/03/04 02:12:07;;;;;;;2.47;1.10;;;-1.00;99.90;;;;;;6313836;28;20270;-76
2022/03/04 02:15:13;;;;;;;2.43;1.30;;;-1.00;99.90;;;;;;6312473;28;20601;-76
2022/03/04 02:18:19;;;;;;;1.80;1.00;;;-1.10;99.90;;;;;;6313343;28;20299;-76
2022/03/04 02:21:28;;;;;;;2.17;1.00;;;-1.10;99.90;;;;;;6314328;28;20587;-76
2022/03/04 02:24:35;;;;;;;2.20;1.10;;;-1.10;99.90;;;;;;6313881;28;20303;-76
2022/03/04 02:27:41;;;;;;;1.17;1.17;;;-1.10;99.90;;;;;;6314004;28;20294;-76
2022/03/04 02:30:46;;;;;;;1.17;1.17;;;-1.10;99.90;;;;;;6313606;28;20273;-75
2022/03/04 02:33:51;;;;;;;2.47;1.47;;;-1.20;99.90;;;;;;6313767;28;20605;-75
2022/03/04 02:36:58;;;;;;;1.10;1.10;;;-1.10;99.90;;;;;;6312026;28;20270;-75
2022/03/04 02:40:07;;;;;;;2.27;1.30;;;-1.20;99.90;;;;;;6312088;28;20297;-75
2022/03/04 02:43:13;;;;;;;2.97;1.00;;;-1.20;99.90;;;;;;6311583;28;20295;-75
2022/03/04 02:46:19;;;;;;;1.33;1.00;;;-1.20;99.90;;;;;;6312085;28;20274;-75
2022/03/04 02:49:25;;;;;;;1.13;1.00;;;-1.20;99.90;;;;;;6310746;28;20577;-75
2022/03/04 02:52:31;;;;;;;1.13;1.10;;;-1.30;99.90;;;;;;6312041;28;20270;-75
2022/03/04 02:55:38;;;;;;;2.43;1.40;;;-1.30;99.90;;;;;;6311552;28;20282;-75
2022/03/04 02:58:43;;;;;;;5.17;2.00;;;-1.30;99.90;;;;;;6311143;28;20299;-75
2022/03/04 03:01:49;;;;;;;1.53;1.43;;;-1.30;99.90;;;;;;6312363;28;20270;-75
2022/03/04 03:04:54;;;;;;;1.10;1.10;;;-1.30;99.90;;;;;;6311678;28;20307;-74
2022/03/04 03:07:59;;;;;;;2.77;1.40;;;-1.30;99.90;;;;;;6312545;28;20302;-75
2022/03/04 03:11:07;;;;;;;0.97;0.97;;;-1.30;99.90;;;;;;6313128;28;20277;-75
2022/03/04 03:14:15;;;;;;;1.73;1.10;;;-1.20;99.90;;;;;;6311626;28;20291;-75
2022/03/04 03:17:20;;;;;;;2.13;1.20;;;-1.20;99.90;;;;;;6311805;28;20275;-74
2022/03/04 03:20:25;;;;;;;1.33;1.10;;;-1.30;99.90;;;;;;6310471;28;20297;-74
2022/03/04 03:23:31;;;;;;;1.30;1.20;;;-1.30;99.90;;;;;;6311318;28;20298;-75
2022/03/04 03:26:37;;;;;;;1.67;1.00;;;-1.30;99.90;;;;;;6312322;28;20565;-75
2022/03/04 03:29:43;;;;;;;4.40;1.20;;;-1.30;99.90;;;;;;6311061;28;20294;-74
2022/03/04 03:32:48;;;;;;;1.03;0.90;;;-1.30;99.90;;;;;;6311589;28;20278;-74
2022/03/04 03:35:54;;;;;;;1.70;1.20;;;-1.30;99.90;;;;;;6311346;28;20549;-74
2022/03/04 03:39:00;;;;;;;1.20;1.20;;;-1.20;99.90;;;;;;6310930;28;20301;-74
2022/03/04 03:42:07;;;;;;;1.10;1.10;;;-1.30;99.90;;;;;;6311443;28;20274;-74
2022/03/04 03:45:13;;;;;;;1.23;1.10;;;-1.30;99.90;;;;;;6311367;28;20297;-74
2022/03/04 03:48:19;;;;;;;1.00;1.00;;;-1.40;99.90;;;;;;6310856;28;20298;-75
2022/03/04 03:51:24;;;;;;;1.10;1.10;;;-1.30;99.90;;;;;;6311940;28;20266;-74
2022/03/04 03:54:29;;;;;;;1.07;1.07;;;-1.30;99.90;;;;;;6311330;28;20292;-75
2022/03/04 03:57:36;;;;;;;1.30;1.20;;;-1.30;99.90;;;;;;6310720;28;20270;-76
2022/03/04 04:00:42;;;;;;;3.40;1.10;;;-1.30;99.90;;;;;;6310889;28;20558;-75
2022/03/04 04:03:48;;;;;;;1.20;1.20;;;-1.30;99.90;;;;;;6314388;28;20472;-74
2022/03/04 04:06:53;;;;;;;2.10;1.10;;;-1.30;99.90;;;;;;6315762;28;20278;-75
2022/03/04 04:09:59;;;;;;;1.90;1.40;;;-1.30;99.90;;;;;;6315128;28;20503;-74
2022/03/04 04:13:05;;;;;;;2.63;1.10;;;-1.30;99.90;;;;;;6315822;28;20289;-75
2022/03/04 04:16:15;;;;;;;3.50;1.13;;;-1.30;99.90;;;;;;6316169;28;20321;-75
2022/03/04 04:19:20;;;;;;;1.00;1.00;;;-1.30;99.90;;;;;;6315591;28;20297;-74
2022/03/04 04:22:25;;;;;;;0.90;0.90;;;-1.40;99.90;;;;;;6315500;28;20297;-75
2022/03/04 04:25:31;;;;;;;1.70;1.10;;;-1.30;99.90;;;;;;6315114;28;20484;-74
2022/03/04 04:28:38;;;;;;;5.93;1.43;;;-1.30;99.90;;;;;;6315374;28;20489;-75
2022/03/04 04:31:43;;;;;;;1.10;1.10;;;-1.30;99.90;;;;;;6315702;28;20262;-75
2022/03/04 04:34:48;;;;;;;1.10;1.10;;;-1.30;99.90;;;;;;6315453;28;20316;-74
2022/03/04 04:37:54;;;;;;;3.10;0.90;;;-1.30;99.90;;;;;;6315065;28;20290;-75
2022/03/04 04:40:59;;;;;;;1.27;1.10;;;-1.30;99.90;;;;;;6315188;28;20279;-75
2022/03/04 04:44:07;;;;;;;3.47;1.10;;;-1.30;99.90;;;;;;6315467;28;20301;-74
2022/03/04 04:47:13;;;;;;;1.13;1.13;;;-1.30;99.90;;;;;;6315119;28;20451;-75
2022/03/04 04:50:18;;;;;;;1.20;1.20;;;-1.30;99.90;;;;;;6314764;28;20330;-74
2022/03/04 04:53:24;;;;;;;2.90;1.27;;;-1.30;99.90;;;;;;6314861;28;20297;-75
2022/03/04 04:56:29;;;;;;;0.87;0.87;;;-1.30;99.90;;;;;;6315497;28;20445;-74
2022/03/04 04:59:36;;;;;;;1.10;1.10;;;-1.30;99.90;;;;;;6314436;28;20305;-74
2022/03/04 05:02:41;;;;;;;1.10;1.10;;;-1.20;99.90;;;;;;6313520;28;20273;-76
2022/03/04 05:05:47;;;;;;;2.77;0.97;;;-1.20;99.90;;;;;;6315573;28;20273;-75
2022/03/04 05:08:52;;;;;;;1.00;1.00;;;-1.30;99.90;;;;;;6314600;28;20298;-76
2022/03/04 05:11:58;;;;;;;2.53;1.17;;;-1.30;99.90;;;;;;6313830;28;20270;-75
2022/03/04 05:15:06;;;;;;;1.57;1.20;;;-1.20;99.90;;;;;;6313643;28;20290;-75
2022/03/04 05:18:17;;;;;;;3.53;1.33;;;-1.30;99.90;;;;;;6312690;28;20297;-76
2022/03/04 05:21:22;;;;;;;3.33;1.20;;;-1.30;99.90;;;;;;6315420;28;20302;-75
2022/03/04 05:24:27;;;;;;;1.00;1.00;;;-1.30;99.90;;;;;;6314142;28;20308;-75
2022/03/04 05:27:33;;;;;;;1.63;1.10;;;-1.30;99.90;;;;;;6314452;28;20282;-75
2022/03/04 05:30:40;;;;;;;1.30;1.20;;;-1.30;99.90;;;;;;6313719;28;20298;-75
2022/03/04 05:33:45;;;;;;;3.50;1.33;;;-1.30;99.90;;;;;;6314577;28;20297;-76
2022/03/04 05:36:51;;;;;;;3.40;1.40;;;-1.30;99.90;;;;;;6314805;28;20441;-75
2022/03/04 05:39:56;;;;;;;0.90;0.90;;;-1.30;99.90;;;;;;6313767;28;20306;-75
2022/03/04 05:43:02;;;;;;;1.80;1.30;;;-1.40;99.90;;;;;;6313826;28;20289;-74
2022/03/04 05:46:09;;;;;;;1.43;1.17;;;-1.40;99.90;;;;;;6313914;28;20270;-75
2022/03/04 05:49:15;;;;;;;4.07;1.33;;;-1.40;99.90;;;;;;6313291;28;20324;-75
2022/03/04 05:52:20;;;;;;;4.13;1.43;;;-1.30;99.90;;;;;;6314108;28;20278;-75
2022/03/04 05:55:25;;;;;;;2.57;0.90;;;-1.40;99.90;;;;;;6313749;28;20297;-75
2022/03/04 05:58:31;;;;;;;3.07;1.20;;;-1.30;99.90;;;;;;6313712;28;20323;-75
2022/03/04 06:01:39;;;;;;;2.63;1.33;;;-1.30;99.90;;;;;;6313735;28;20279;-74
2022/03/04 06:04:45;;;;;;;1.40;0.97;;;-1.30;99.90;;;;;;6312592;28;20298;-75
2022/03/04 06:07:50;;;;;;;1.77;1.10;;;-1.30;99.90;;;;;;6313250;28;20269;-75
2022/03/04 06:10:55;;;;;;;1.50;1.40;;;-1.30;99.90;;;;;;6313544;28;20611;-75
2022/03/04 06:14:01;;;;;;;1.10;1.10;;;-1.30;99.90;;;;;;6313332;28;20304;-75
2022/03/04 06:17:08;;;;;;;3.90;1.30;;;-1.30;99.90;;;;;;6313677;28;20273;-75
2022/03/04 06:20:15;;;;;;;1.83;1.40;;;-1.20;99.90;;;;;;6312551;28;20309;-75
2022/03/04 06:23:21;;;;;;;4.20;1.27;;;-1.20;99.90;;;;;;6313058;28;20301;-75
2022/03/04 06:26:30;;;;;;;1.27;1.23;;;-1.10;99.90;;;;;;6312299;28;20272;-75
2022/03/04 06:29:36;;;;;;;4.83;1.47;;;-1.10;99.90;;;;;;6312932;28;20309;-75
2022/03/04 06:32:42;;;;;;;2.03;1.00;;;-1.10;99.90;;;;;;6312167;28;20294;-76
2022/03/04 06:35:49;;;;;;;3.93;1.30;;;-1.10;99.90;;;;;;6312329;28;20227;-75
2022/03/04 06:38:54;;;;;;;1.37;1.30;;;-1.10;99.90;;;;;;6311890;28;20288;-76
2022/03/04 06:41:59;;;;;;;3.70;1.57;;;-1.00;99.90;;;;;;6312848;28;20282;-75
2022/03/04 06:45:06;;;;;;;1.40;1.40;;;-0.90;99.90;;;;;;6311648;28;20299;-76
2022/03/04 06:48:18;;;;;;;1.57;1.50;;;-0.80;99.90;;;;;;6312150;28;20294;-76
2022/03/04 06:51:23;;;;;;;1.50;1.40;;;-0.80;99.90;;;;;;6312796;28;20555;-76
2022/03/04 06:54:29;;;;;;;3.40;1.07;;;-0.70;99.90;;;;;;6311636;28;20295;-76
2022/03/04 06:57:34;;;;;;;5.40;1.20;;;-0.70;99.90;;;;;;6312258;28;20571;-76
2022/03/04 07:00:41;;;;;;;2.73;1.37;;;-0.70;99.90;;;;;;6310830;28;20280;-75
2022/03/04 07:03:48;;;;;;;1.70;1.30;;;-0.70;99.90;;;;;;6311422;28;20371;-76
2022/03/04 07:06:54;;;;;;;1.20;1.10;;;-0.70;99.90;;;;;;6311952;28;20454;-75
2022/03/04 07:09:59;;;;;;;2.30;1.00;;;-0.60;99.90;;;;;;6312239;28;20291;-76
2022/03/04 07:13:06;;;;;;;2.27;1.17;;;-0.60;99.90;;;;;;6310966;28;20322;-76
2022/03/04 07:16:12;;;;;;;1.93;1.00;;;-0.50;99.90;;;;;;6312227;28;20274;-75
2022/03/04 07:19:18;;;;;;;1.23;1.23;;;-0.50;99.90;;;;;;6311854;28;20290;-76
2022/03/04 07:22:24;;;;;;;1.17;1.10;;;-0.50;99.90;;;;;;6311706;28;20301;-75
2022/03/04 07:25:29;;;;;;;1.00;1.00;;;-0.40;99.90;;;;;;6311774;28;20297;-75
2022/03/04 07:28:34;;;;;;;1.80;1.03;;;-0.40;99.90;;;;;;6310919;28;20302;-75
2022/03/04 07:31:40;;;;;;;3.77;1.27;;;-0.40;99.90;;;;;;6311768;28;20292;-75
2022/03/04 07:34:47;;;;;;;2.10;1.20;;;-0.40;99.90;;;;;;6310861;28;20295;-76
2022/03/04 07:37:53;;;;;;;3.30;1.40;;;-0.40;99.90;;;;;;6310091;28;20269;-76
2022/03/04 07:40:59;;;;;;;1.70;1.00;;;-0.30;99.90;;;;;;6312238;28;20268;-75
2022/03/04 07:44:05;;;;;;;2.30;1.30;;;-0.20;99.90;;;;;;6310943;28;20298;-76
2022/03/04 07:47:10;;;;;;;1.37;1.10;;;-0.20;99.90;;;;;;6311713;28;20327;-75
2022/03/04 07:50:17;;;;;;;4.50;1.37;;;-0.10;99.90;;;;;;6311669;28;20605;-76
2022/03/04 07:53:26;;;;;;;0.90;0.90;;;-0.10;99.90;;;;;;6312073;28;20298;-76
2022/03/04 07:56:32;;;;;;;1.40;1.20;;;0.00;99.90;;;;;;6311460;28;20272;-76
2022/03/04 07:59:37;;;;;;;1.07;1.07;;;-0.10;99.90;;;;;;6293568;28;20296;-76
2022/03/04 08:02:42;;;;;;;2.00;1.00;;;0.00;99.90;;;;;;6310514;28;20274;-76
2022/03/04 08:05:49;;;;;;;1.40;1.30;;;0.00;99.90;;;;;;6311200;28;20271;-76
2022/03/04 08:08:55;;;;;;;1.07;1.00;;;0.00;99.90;;;;;;6311152;28;20306;-76
2022/03/04 08:12:00;;;;;;;1.93;1.07;;;0.10;99.90;;;;;;6311323;28;20462;-76
2022/03/04 08:15:07;;;;;;;2.47;0.90;;;0.00;99.90;;;;;;6310551;28;20300;-76
2022/03/04 08:18:17;;;;;;;1.70;0.90;;;0.00;99.90;;;;;;6310979;28;20299;-76
2022/03/04 08:21:24;;;;;;;2.53;1.10;;;0.10;99.90;;;;;;6310631;28;20301;-76
2022/03/04 08:24:30;;;;;;;1.00;1.00;;;0.10;99.90;;;;;;6310650;28;20480;-76
2022/03/04 08:27:39;;;;;;;1.17;1.07;;;0.20;99.90;;;;;;6310904;28;20271;-77
2022/03/04 08:30:44;;;;;;;4.83;1.20;;;0.20;99.90;;;;;;6310890;28;20451;-76
2022/03/04 08:33:50;;;;;;;1.33;1.20;;;0.20;99.90;;;;;;6310521;28;20296;-77
2022/03/04 08:36:57;;;;;;;1.13;1.10;;;0.30;99.90;;;;;;6310294;28;20271;-76
2022/03/04 08:40:04;;;;;;;1.67;1.20;;;0.30;99.90;;;;;;6310713;28;20297;-76
2022/03/04 08:43:10;;;;;;;1.13;1.13;;;0.30;99.90;;;;;;6310272;28;20319;-76
2022/03/04 08:46:15;;;;;;;1.53;1.43;;;0.40;99.90;;;;;;6310409;28;20270;-75
2022/03/04 08:49:20;;;;;;;2.03;1.30;;;0.40;99.90;;;;;;6314894;28;20302;-75
2022/03/04 08:52:29;;;;;;;4.33;1.70;;;0.40;99.90;;;;;;6315247;28;20288;-76
2022/03/04 08:55:34;;;;;;;3.43;1.97;;;0.50;99.90;;;;;;6314018;28;20300;-74
2022/03/04 08:58:40;;;;;;;1.90;1.80;;;0.60;99.90;;;;;;6314772;28;20296;-74
2022/03/04 09:01:46;;;;;;;3.40;1.77;;;0.60;99.90;;;;;;6314633;28;20567;-75
2022/03/04 09:04:52;;;;;;;2.43;2.17;;;0.70;99.90;;;;;;6314424;28;20296;-75
2022/03/04 09:07:58;;;;;;;3.03;2.53;;;0.70;99.90;;;;;;6313910;28;20291;-76
2022/03/04 09:11:04;;;;;;;5.23;2.73;;;0.80;99.90;;;;;;6314781;28;20272;-75
2022/03/04 09:14:10;;;;;;;3.77;2.53;;;0.70;99.90;;;;;;6314534;28;20304;-75
2022/03/04 09:17:15;;;;;;;7.20;3.77;;;0.70;99.90;;;;;;6315184;28;20273;-75
2022/03/04 09:20:21;;;;;;;5.80;3.93;;;0.70;99.90;;;;;;6314966;28;20296;-75
2022/03/04 09:23:28;;;;;;;10.40;5.33;;;0.70;99.90;;;;;;6288881;28;20306;-75
2022/03/04 09:26:33;;;;;;;10.80;5.20;;;0.80;99.90;;;;;;6289828;28;20275;-76
2022/03/04 09:29:38;;;;;;;9.53;5.27;;;0.80;99.90;;;;;;6289869;28;20302;-76
2022/03/04 09:32:44;;;;;;;14.37;6.47;;;0.80;99.90;;;;;;6288405;28;20290;-75
2022/03/04 09:35:49;;;;;;;15.10;6.63;;;0.80;99.90;;;;;;6289607;28;20272;-75
2022/03/04 09:38:55;;;;;;;12.13;6.27;;;0.90;99.90;;;;;;6289314;28;20294;-76
2022/03/04 09:42:02;;;;;;;9.73;5.50;;;0.90;99.90;;;;;;6289526;28;20326;-76
2022/03/04 09:45:09;;;;;;;9.33;5.60;;;1.10;99.90;;;;;;6288882;28;20305;-76
2022/03/04 09:48:17;;;;;;;8.97;5.20;;;1.10;99.90;;;;;;6289344;28;20294;-76
2022/03/04 09:51:23;;;;;;;7.77;4.93;;;1.20;99.90;;;;;;6288694;28;20272;-76
2022/03/04 09:54:31;;;;;;;4.63;4.07;;;1.10;99.90;;;;;;6288697;28;20301;-76
2022/03/04 09:57:36;;;;;;;5.47;3.87;;;1.20;99.90;;;;;;6288800;28;20274;-77
2022/03/04 10:00:43;;;;;;;3.93;3.10;;;1.20;99.90;;;;;;6288845;28;20274;-77
2022/03/04 10:03:50;;;;;;;3.43;3.13;;;1.30;99.90;;;;;;6288461;28;20302;-76
2022/03/04 10:06:56;;;;;;;3.43;3.13;;;1.30;99.90;;;;;;6288535;28;20281;-77
2022/03/04 10:10:04;;;;;;;3.03;2.73;;;1.20;99.90;;;;;;6288255;28;20340;-76
2022/03/04 10:13:12;;;;;;;3.40;1.90;;;1.30;99.90;;;;;;6288164;28;20464;-77
2022/03/04 10:16:25;;;;;;;1.33;1.33;;;1.30;99.90;;;;;;6288909;28;20566;-76
2022/03/04 10:19:33;;;;;;;1.60;1.60;;;1.50;99.90;;;;;;6287879;28;20328;-77
2022/03/04 10:22:42;;;;;;;1.33;1.10;;;1.50;99.90;;;;;;6307138;28;20306;-77
2022/03/04 10:25:52;;;;;;;1.00;1.00;;;1.60;99.70;;;;;;6313730;28;20469;-77
2022/03/04 10:28:57;;;;;;;0.80;0.80;;;1.60;98.60;;;;;;6312758;28;20465;-76
2022/03/04 10:32:14;;;;;;;2.43;1.00;;;1.70;94.70;;;;;;6313790;28;20284;-77
2022/03/04 10:35:27;;;;;;;0.83;0.80;;;1.70;95.80;;;;;;6312943;28;20460;-76
2022/03/04 10:38:33;;;;;;;1.50;1.17;;;1.80;95.20;;;;;;6312934;28;20294;-76
2022/03/04 10:41:50;;;;;;;0.90;0.90;;;1.80;94.20;;;;;;6313424;28;20292;-76
2022/03/04 10:45:06;;;;;;;10.87;1.00;;;1.90;92.50;;;;;;6312114;28;20317;-76
2022/03/04 10:48:20;;;;;;;0.70;0.70;;;1.90;94.40;;;;;;6312530;28;20293;-76
2022/03/04 10:51:38;;;;;;;1.13;0.80;;;1.90;93.20;;;;;;6295266;28;20272;-77
2022/03/04 10:54:51;;;;;;;1.13;1.03;;;2.00;91.40;;;;;;6311879;28;20298;-76
2022/03/04 10:57:59;;;;;;;0.80;0.80;;;2.10;90.70;;;;;;6312108;28;20293;-77
2022/03/04 11:01:09;;;;;;;0.90;0.90;;;2.10;91.90;;;;;;6312965;28;20267;-77
2022/03/04 11:04:19;;;;;;;0.60;0.60;;;2.10;92.70;;;;;;6312638;28;20589;-77
2022/03/04 11:07:25;;;;;;;1.20;0.97;;;2.20;87.90;;;;;;6312664;28;20273;-76
2022/03/04 11:10:30;;;;;;;3.07;1.30;;;2.30;84.50;;;;;;6310692;28;20286;-77
2022/03/04 11:13:37;;;;;;;0.80;0.80;;;2.30;85.60;;;;;;6311856;28;20448;-76
2022/03/04 11:16:43;;;;;;;1.23;1.23;;;2.40;81.20;;;;;;6313141;28;20274;-76
2022/03/04 11:19:50;;;;;;;0.80;0.80;;;2.40;75.80;;;;;;6312186;28;20297;-76
2022/03/04 11:22:57;;;;;;;1.00;1.00;;;2.50;68.50;;;;;;6311371;28;20293;-76
2022/03/04 11:26:04;;;;;;;0.67;0.67;;;2.60;72.30;;;;;;6312546;28;20274;-77
2022/03/04 11:29:36;;;;;;;0.70;0.70;;;2.50;75.20;;;;;;6311768;28;20295;-77
2022/03/04 11:32:42;;;;;;;1.33;0.70;;;2.60;78.60;;;;;;6293904;28;20272;-77
2022/03/04 11:36:07;;;;;;;0.70;0.70;;;2.70;67.90;;;;;;6311821;28;20296;-77
2022/03/04 11:39:16;;;;;;;0.90;0.90;;;2.70;68.50;;;;;;6311880;28;20495;-76
2022/03/04 11:42:21;;;;;;;0.77;0.77;;;2.70;70.90;;;;;;6311856;28;20269;-76
2022/03/04 11:45:34;;;;;;;0.77;0.77;;;2.80;70.20;;;;;;6311183;28;20453;-76
2022/03/04 11:48:40;;;;;;;1.50;0.90;;;2.80;72.40;;;;;;6310043;28;20290;-77
2022/03/04 11:52:29;;;;;;;0.70;0.70;;;2.90;71.90;;;;;;6312383;28;20291;-76
2022/03/04 11:55:35;;;;;;;1.70;0.90;;;2.90;75.50;;;;;;6309563;28;20299;-76
2022/03/04 11:59:08;;;;;;;1.20;0.67;;;2.90;73.10;;;;;;6311080;28;20291;-76
2022/03/04 12:02:20;;;;;;;0.80;0.63;;;2.90;76.70;;;;;;6311857;28;20264;-76
2022/03/04 12:05:32;;;;;;;1.03;0.80;;;2.90;73.30;;;;;;6310909;28;20292;-76
2022/03/04 12:08:40;;;;;;;4.50;1.20;;;2.90;73.10;;;;;;6293165;28;20290;-77
2022/03/04 12:12:10;;;;;;;3.20;0.77;;;2.90;76.30;;;;;;6312389;28;20262;-76
2022/03/04 12:15:31;;;;;;;1.00;0.80;;;3.00;73.90;;;;;;6311221;28;20294;-76
2022/03/04 12:18:42;;;;;;;0.90;0.80;;;3.00;74.40;;;;;;6309945;28;20299;-77
2022/03/04 12:21:48;;;;;;;0.80;0.80;;;3.00;72.60;;;;;;6312143;28;20301;-77
2022/03/04 12:24:55;;;;;;;0.90;0.90;;;3.00;76.70;;;;;;6316607;28;20302;-76
2022/03/04 12:28:01;;;;;;;0.70;0.70;;;3.00;76.70;;;;;;6316761;28;20301;-77
2022/03/04 12:31:21;;;;;;;1.63;0.70;;;3.10;71.60;;;;;;6317294;28;20274;-76
2022/03/04 12:34:31;;;;;;;0.80;0.80;;;3.10;72.70;;;;;;6316914;28;20469;-77
2022/03/04 12:37:41;;;;;;;0.70;0.70;;;3.10;73.10;;;;;;6315619;28;20274;-77
2022/03/04 12:40:48;;;;;;;0.70;0.70;;;3.10;74.60;;;;;;6317262;28;20273;-77
2022/03/04 12:44:15;;;;;;;0.80;0.80;;;3.10;76.20;;;;;;6301893;28;20298;-75
2022/03/04 12:47:22;;;;;;;1.10;0.70;;;3.20;73.90;;;;;;6315665;28;20276;-76
2022/03/04 12:50:32;;;;;;;0.80;0.80;;;3.20;72.10;;;;;;6314972;28;20300;-75
2022/03/04 12:53:38;;;;;;;2.23;0.90;;;3.40;68.00;;;;;;6315200;28;20293;-76
2022/03/04 12:56:50;;;;;;;3.17;1.10;;;3.40;67.30;;;;;;6316679;28;20281;-75
2022/03/04 12:59:55;;;;;;;1.13;0.60;;;3.40;65.10;;;;;;6315423;28;20300;-77
2022/03/04 13:03:19;;;;;;;0.53;0.53;;;3.30;64.10;;;;;;6315598;28;20297;-75
2022/03/04 13:06:28;;;;;;;1.83;1.40;;;3.30;62.10;;;;;;6316592;28;20277;-75
2022/03/04 13:09:37;;;;;;;1.40;1.30;;;3.30;61.80;;;;;;6314721;28;20477;-75
2022/03/04 13:12:45;;;;;;;1.20;0.77;;;3.30;63.30;;;;;;6315174;28;20269;-75
2022/03/04 13:15:54;;;;;;;0.57;0.57;;;3.30;62.90;;;;;;6315296;28;20295;-75
2022/03/04 13:19:01;;;;;;;0.63;0.60;;;3.30;59.90;;;;;;6315000;28;20307;-76
2022/03/04 13:22:12;;;;;;;0.50;0.50;;;3.40;57.80;;;;;;6314805;28;20314;-76
2022/03/04 13:25:17;;;;;;;2.23;0.70;;;3.40;59.50;;;;;;6314309;28;20301;-76
2022/03/04 13:28:23;;;;;;;0.80;0.80;;;3.30;64.90;;;;;;6313801;28;20291;-77
2022/03/04 13:31:30;;;;;;;0.77;0.70;;;3.30;62.60;;;;;;6314691;28;20278;-74
2022/03/04 13:34:36;;;;;;;2.10;0.80;;;3.40;60.60;;;;;;6313692;28;20628;-77
2022/03/04 13:37:44;;;;;;;0.73;0.70;;;3.40;60.70;;;;;;6314918;28;20471;-77
2022/03/04 13:40:49;;;;;;;1.10;0.80;;;3.40;61.90;;;;;;6315629;28;20451;-75
2022/03/04 13:44:06;;;;;;;2.53;0.80;;;3.40;65.40;;;;;;6313747;28;20304;-75
2022/03/04 13:47:11;;;;;;;1.93;0.80;;;3.40;62.60;;;;;;6314819;28;20294;-76
2022/03/04 13:50:28;;;;;;;2.00;1.00;;;3.50;65.30;;;;;;6314833;28;20299;-76
2022/03/04 13:53:57;;;;;;;0.90;0.90;;;3.40;65.30;;;;;;6314624;28;20296;-76
2022/03/04 13:57:07;;;;;;;0.90;0.90;;;3.40;73.30;;;;;;6314655;28;20463;-75
2022/03/04 14:00:15;;;;;;;1.13;1.00;;;3.40;66.30;;;;;;6314169;28;20296;-75
2022/03/04 14:03:29;;;;;;;1.43;0.97;;;3.40;65.60;;;;;;6314243;28;20308;-75
2022/03/04 14:06:37;;;;;;;0.80;0.80;;;3.40;63.30;;;;;;6313935;28;20277;-75
2022/03/04 14:09:48;;;;;;;1.00;1.00;;;3.40;61.80;;;;;;6313522;28;20297;-75
2022/03/04 14:12:53;;;;;;;4.13;1.07;;;3.40;61.30;;;;;;6313389;28;20292;-76
2022/03/04 14:16:00;;;;;;;3.93;0.90;;;3.40;61.50;;;;;;6313583;28;20277;-75
2022/03/04 14:19:07;;;;;;;1.67;0.80;;;3.40;62.00;;;;;;6313484;28;20571;-76
2022/03/04 14:22:12;;;;;;;0.70;0.70;;;3.40;59.80;;;;;;6313548;28;20296;-76
2022/03/04 14:25:19;;;;;;;0.80;0.80;;;3.30;63.80;;;;;;6313860;28;20428;-76
2022/03/04 14:28:25;;;;;;;2.47;1.03;;;3.30;62.90;;;;;;6312942;28;20296;-76
2022/03/04 14:31:30;;;;;;;0.90;0.90;;;3.30;60.00;;;;;;6313592;28;20349;-76
2022/03/04 14:34:35;;;;;;;1.10;1.10;;;3.30;59.50;;;;;;6313012;28;20300;-76
2022/03/04 14:37:41;;;;;;;1.43;1.00;;;3.40;60.20;;;;;;6313546;28;20289;-76
2022/03/04 14:40:48;;;;;;;3.60;0.90;;;3.30;66.30;;;;;;6313498;28;20275;-77
2022/03/04 14:43:54;;;;;;;4.63;1.20;;;3.20;67.20;;;;;;6312956;28;20369;-76
2022/03/04 14:46:59;;;;;;;2.00;1.10;;;3.20;69.50;;;;;;6313037;28;20277;-76
2022/03/04 14:50:07;;;;;;;3.07;1.30;;;3.10;69.30;;;;;;6312775;28;20305;-76
2022/03/04 14:53:14;;;;;;;5.27;1.57;;;3.10;72.60;;;;;;6312778;28;20292;-76
2022/03/04 14:56:22;;;;;;;2.83;1.33;;;3.10;74.00;;;;;;6312426;28;20275;-76
2022/03/04 14:59:29;;;;;;;6.47;1.10;;;3.00;78.70;;;;;;6312935;28;20297;-76
2022/03/04 15:02:34;;;;;;;2.80;1.17;;;2.90;77.20;;;;;;6312779;28;20275;-76
2022/03/04 15:05:40;;;;;;;3.17;1.30;;;2.90;80.10;;;;;;6311157;28;20556;-76
2022/03/04 15:08:45;;;;;;;3.03;1.10;;;2.90;78.10;;;;;;6311764;28;20293;-76
2022/03/04 15:11:56;;;;;;;4.53;1.10;;;2.80;80.70;;;;;;6312995;28;20271;-77
2022/03/04 15:15:01;;;;;;;2.70;1.07;;;2.60;89.40;;;;;;6312484;28;20315;-77
2022/03/04 15:18:08;;;;;;;3.20;1.00;;;2.70;85.90;;;;;;6311576;28;20296;-76
2022/03/04 15:21:13;;;;;;;1.40;1.30;;;2.60;84.00;;;;;;6312513;28;20572;-76
2022/03/04 15:24:19;;;;;;;1.20;1.03;;;2.70;80.60;;;;;;6311774;28;20293;-76
2022/03/04 15:27:26;;;;;;;17.53;1.50;;;2.50;87.40;;;;;;6311900;28;20278;-76
2022/03/04 15:30:32;;;;;;;6.20;1.43;;;2.60;84.40;;;;;;6311766;28;20293;-76
2022/03/04 15:33:37;;;;;;;8.87;1.40;;;2.50;86.90;;;;;;6311847;28;20563;-76
2022/03/04 15:36:43;;;;;;;4.10;1.50;;;2.50;87.00;;;;;;6312655;28;20277;-76
2022/03/04 15:39:48;;;;;;;4.53;1.23;;;2.60;82.80;;;;;;6311765;28;20297;-76
2022/03/04 15:42:55;;;;;;;2.73;1.20;;;2.50;89.20;;;;;;6311655;28;20269;-75
2022/03/04 15:46:00;;;;;;;2.40;1.00;;;2.30;91.80;;;;;;6311379;28;20270;-75
2022/03/04 15:49:06;;;;;;;8.27;1.30;;;2.30;91.80;;;;;;6311316;28;20298;-75
2022/03/04 15:52:12;;;;;;;3.70;1.20;;;2.20;94.00;;;;;;6311148;28;20450;-75
2022/03/04 15:55:18;;;;;;;3.93;1.10;;;2.20;91.90;;;;;;6311102;28;20310;-75
2022/03/04 15:58:28;;;;;;;2.80;1.30;;;2.10;93.50;;;;;;6314591;28;20314;-75
2022/03/04 16:01:34;;;;;;;4.00;1.03;;;2.00;93.20;;;;;;6316652;28;20270;-75
2022/03/04 16:04:40;;;;;;;12.03;2.40;;;2.00;94.40;;;;;;6316539;28;20563;-75
2022/03/04 16:07:46;;;;;;;4.40;1.40;;;2.00;94.50;;;;;;6316764;28;20280;-75
2022/03/04 16:10:52;;;;;;;24.33;2.07;;;1.80;97.00;;;;;;6315970;28;20265;-76
2022/03/04 16:13:59;;;;;;;6.23;1.70;;;1.80;96.90;;;;;;6316120;28;20308;-75
2022/03/04 16:17:05;;;;;;;13.97;2.17;;;1.70;97.50;;;;;;6316858;28;20374;-75
2022/03/04 16:20:12;;;;;;;6.37;1.43;;;1.60;98.00;;;;;;6315591;28;20301;-76
2022/03/04 16:23:18;;;;;;;8.47;2.37;;;1.60;98.20;;;;;;6315104;28;20309;-76